McNeill, Mississippi
Current Conditions -  °F | °C
As of 2:53 AM on Sunday 21 Dec 2014 (Local Time) from KASD Reporting Station
Overcast Overcast  
Wind Chill: 52°   Ceiling: 2000
Heat Index: 52°   Visibility: 10mi
Dew Point: 47°   Wind: 5mph
Humidity: 83%   Direction: 20°NNE
Pressure: 30.13"   Gusts: NA
Location:  30.67°N, 89.64°W
Report Text: KASD 210853Z AUTO 02004KT 10SM OVC020 11/08 A3013 RMK AO2 SLP202 T01110083 56008
Loading
Personal Weather Stations






























Interactive Weather Map New forecast layout! Learn more

10-Day Weather Forecast

Advertisements
Track Severe Weather on mobile